createdAt,value
2019-03-10T00:00:53.341Z,87.90
2019-03-10T00:03:23.883Z,87.86
2019-03-10T00:05:54.461Z,88.35
2019-03-10T00:08:29.045Z,88.74
2019-03-10T00:10:59.640Z,88.74
2019-03-10T00:13:30.600Z,89.07
2019-03-10T00:16:01.219Z,89.82
2019-03-10T00:18:33.351Z,89.77
2019-03-10T00:21:03.900Z,90.09
2019-03-10T00:23:34.508Z,89.96
2019-03-10T00:26:05.297Z,90.15
2019-03-10T00:28:35.809Z,90.62
2019-03-10T00:31:06.403Z,91.05
2019-03-10T00:33:36.963Z,91.13
2019-03-10T00:36:07.631Z,91.30
2019-03-10T00:39:13.737Z,91.33
2019-03-10T00:42:45.498Z,91.57
2019-03-10T00:46:24.018Z,91.94
2019-03-10T00:50:21.085Z,92.25
2019-03-10T00:53:03.991Z,93.07
2019-03-10T00:55:34.544Z,93.74
2019-03-10T00:58:05.127Z,94.06
2019-03-10T01:00:35.729Z,94.14
2019-03-10T01:03:06.349Z,94.50
2019-03-10T01:05:36.912Z,95.13
2019-03-10T01:08:09.070Z,95.25
2019-03-10T01:10:39.625Z,95.46
2019-03-10T01:13:10.229Z,95.52
2019-03-10T01:15:41.480Z,95.95
2019-03-10T01:18:14.421Z,96.46
2019-03-10T01:20:46.522Z,96.35
2019-03-10T01:23:20.204Z,96.19
2019-03-10T01:25:50.763Z,96.68
2019-03-10T01:28:22.131Z,96.75
2019-03-10T01:31:14.247Z,97.09
2019-03-10T01:34:46.084Z,97.06
2019-03-10T01:37:16.649Z,97.30
2019-03-10T01:39:47.233Z,97.37
2019-03-10T01:42:17.770Z,97.45
2019-03-10T01:44:48.351Z,97.75
2019-03-10T01:47:18.905Z,98.03
2019-03-10T01:49:49.487Z,98.25
2019-03-10T01:52:20.098Z,98.36
2019-03-10T01:54:50.621Z,98.33
2019-03-10T01:57:21.194Z,98.37
2019-03-10T01:59:51.740Z,98.89
2019-03-10T02:02:25.518Z,99.01
2019-03-10T02:04:54.659Z,99.13
2019-03-10T02:07:25.252Z,99.17
2019-03-10T02:09:55.838Z,98.95
2019-03-10T02:12:26.455Z,99.73
2019-03-10T02:14:57.017Z,100.00
2019-03-10T02:17:27.575Z,99.69
2019-03-10T02:19:58.083Z,99.70
2019-03-10T02:22:38.903Z,99.57
2019-03-10T02:25:09.452Z,99.64
2019-03-10T02:27:40.034Z,99.74
2019-03-10T02:30:14.220Z,99.66
2019-03-10T02:32:44.842Z,99.73
2019-03-10T02:35:15.370Z,99.59
2019-03-10T02:37:46.244Z,99.04
2019-03-10T02:40:16.770Z,98.79
2019-03-10T02:42:47.364Z,97.84
2019-03-10T02:45:17.981Z,97.98
2019-03-10T02:47:49.998Z,98.18
2019-03-10T02:50:20.570Z,98.94
2019-03-10T02:52:51.170Z,100.00
2019-03-10T02:55:21.751Z,100.00
2019-03-10T02:57:52.309Z,100.00
2019-03-10T03:00:22.829Z,100.00
2019-03-10T03:02:53.496Z,100.00
2019-03-10T03:05:24.043Z,100.00
2019-03-10T03:07:54.664Z,100.00
2019-03-10T03:10:25.217Z,100.00
2019-03-10T03:12:55.791Z,100.00
2019-03-10T03:15:26.383Z,100.00
2019-03-10T03:17:56.946Z,100.00
2019-03-10T03:20:27.546Z,100.00
2019-03-10T03:22:58.055Z,100.00
2019-03-10T03:25:28.607Z,100.00
2019-03-10T03:27:59.175Z,100.00
2019-03-10T03:30:30.085Z,100.00
2019-03-10T03:33:00.707Z,100.00
2019-03-10T03:35:53.904Z,100.00
2019-03-10T03:38:35.411Z,100.00
2019-03-10T03:41:10.299Z,100.00
2019-03-10T03:43:40.869Z,100.00
2019-03-10T03:46:11.504Z,100.00
2019-03-10T03:48:42.073Z,100.00
2019-03-10T03:51:12.740Z,100.00
2019-03-10T03:53:45.510Z,100.00
2019-03-10T03:56:18.442Z,100.00
2019-03-10T03:58:49.006Z,100.00
2019-03-10T04:01:24.498Z,100.00
2019-03-10T04:03:55.103Z,100.00
2019-03-10T04:06:25.687Z,100.00
2019-03-10T04:08:56.274Z,100.00
2019-03-10T04:11:28.791Z,100.00
2019-03-10T04:14:00.436Z,100.00
2019-03-10T04:16:30.997Z,100.00
2019-03-10T04:19:01.524Z,100.00
2019-03-10T04:21:32.021Z,100.00
2019-03-10T04:24:05.153Z,100.00
2019-03-10T04:26:34.924Z,100.00
2019-03-10T04:29:05.561Z,100.00
2019-03-10T04:31:36.085Z,100.00
2019-03-10T04:34:06.654Z,100.00
2019-03-10T04:36:37.155Z,100.00
2019-03-10T04:39:08.884Z,100.00
2019-03-10T04:41:39.411Z,100.00
2019-03-10T04:44:09.998Z,100.00
2019-03-10T04:46:40.552Z,100.00
2019-03-10T04:49:11.102Z,100.00
2019-03-10T04:51:41.645Z,100.00
2019-03-10T04:54:12.243Z,100.00
2019-03-10T04:56:49.343Z,100.00
2019-03-10T04:59:19.912Z,100.00
2019-03-10T05:01:50.487Z,100.00
2019-03-10T05:04:21.110Z,100.00
2019-03-10T05:06:51.635Z,100.00
2019-03-10T05:09:22.192Z,100.00
2019-03-10T05:11:52.783Z,100.00
2019-03-10T05:14:23.299Z,100.00
2019-03-10T05:16:53.892Z,100.00
2019-03-10T05:19:24.454Z,100.00
2019-03-10T05:21:54.985Z,100.00
2019-03-10T05:24:27.641Z,100.00
2019-03-10T05:26:58.185Z,100.00
2019-03-10T05:29:28.767Z,100.00
2019-03-10T05:31:59.330Z,100.00
2019-03-10T05:34:29.900Z,100.00
2019-03-10T05:37:00.441Z,100.00
2019-03-10T05:39:31.040Z,100.00
2019-03-10T05:42:01.608Z,100.00
2019-03-10T05:44:33.705Z,100.00
2019-03-10T05:47:04.261Z,100.00
2019-03-10T05:49:34.835Z,100.00
2019-03-10T05:52:05.393Z,100.00
2019-03-10T05:54:35.990Z,100.00
2019-03-10T05:57:06.522Z,100.00
2019-03-10T05:59:42.888Z,100.00
2019-03-10T06:02:13.456Z,100.00
2019-03-10T06:04:44.047Z,100.00
2019-03-10T06:07:14.594Z,100.00
2019-03-10T06:09:45.141Z,100.00
2019-03-10T06:12:15.763Z,100.00
2019-03-10T06:14:46.374Z,100.00
2019-03-10T06:17:16.938Z,100.00
2019-03-10T06:19:47.516Z,100.00
2019-03-10T06:22:18.051Z,100.00
2019-03-10T06:24:48.973Z,100.00
2019-03-10T06:27:19.616Z,100.00
2019-03-10T06:29:50.233Z,100.00
2019-03-10T06:32:20.870Z,100.00
2019-03-10T06:34:54.198Z,100.00
2019-03-10T06:37:27.850Z,100.00
2019-03-10T06:39:58.527Z,100.00
2019-03-10T06:42:29.172Z,100.00
2019-03-10T06:44:59.718Z,100.00
2019-03-10T06:47:30.268Z,100.00
2019-03-10T06:50:00.814Z,100.00
2019-03-10T06:52:33.147Z,100.00
2019-03-10T06:55:03.711Z,100.00
2019-03-10T06:57:35.223Z,100.00
2019-03-10T07:00:06.247Z,100.00
2019-03-10T07:02:37.670Z,100.00
2019-03-10T07:05:12.444Z,100.00
2019-03-10T07:07:42.991Z,100.00
2019-03-10T07:10:14.679Z,100.00
2019-03-10T07:12:45.272Z,100.00
2019-03-10T07:15:15.948Z,100.00
2019-03-10T07:17:48.307Z,100.00
2019-03-10T07:20:19.130Z,100.00
2019-03-10T07:22:49.691Z,100.00
2019-03-10T07:25:23.787Z,100.00
2019-03-10T07:28:13.194Z,100.00
2019-03-10T07:30:53.586Z,100.00
2019-03-10T07:33:54.998Z,100.00
2019-03-10T07:36:46.466Z,100.00
2019-03-10T07:39:41.490Z,100.00
2019-03-10T07:42:19.429Z,100.00
2019-03-10T07:44:58.307Z,100.00
2019-03-10T07:47:39.237Z,100.00
2019-03-10T07:50:28.699Z,100.00
2019-03-10T07:53:13.604Z,100.00
2019-03-10T07:55:56.505Z,100.00
2019-03-10T07:58:44.430Z,100.00
2019-03-10T08:01:24.319Z,100.00
2019-03-10T08:04:12.500Z,100.00
2019-03-10T08:07:02.580Z,100.00
2019-03-10T08:09:50.232Z,100.00
2019-03-10T08:12:58.837Z,100.00
2019-03-10T08:15:53.808Z,100.00
2019-03-10T08:18:50.086Z,100.00
2019-03-10T08:21:30.696Z,100.00
2019-03-10T08:24:19.672Z,100.00
2019-03-10T08:26:56.524Z,100.00
2019-03-10T08:29:40.225Z,100.00
2019-03-10T08:32:32.071Z,100.00
2019-03-10T08:35:27.618Z,100.00
2019-03-10T08:38:32.318Z,100.00
2019-03-10T08:41:20.060Z,100.00
2019-03-10T08:47:07.999Z,100.00
2019-03-10T08:49:57.459Z,100.00
2019-03-10T08:52:53.106Z,100.00
2019-03-10T08:55:30.327Z,100.00
2019-03-10T08:58:28.659Z,100.00
2019-03-10T09:01:27.152Z,100.00
2019-03-10T09:04:15.026Z,100.00
2019-03-10T09:07:10.384Z,100.00
2019-03-10T09:09:55.967Z,100.00
2019-03-10T09:12:40.456Z,100.00
2019-03-10T09:15:21.433Z,100.00
2019-03-10T09:18:23.264Z,100.00
2019-03-10T09:21:12.845Z,100.00
2019-03-10T09:23:57.250Z,100.00
2019-03-10T09:26:58.633Z,100.00
2019-03-10T09:29:53.974Z,100.00
2019-03-10T09:32:46.477Z,100.00
2019-03-10T09:35:24.416Z,100.00
2019-03-10T09:38:07.453Z,100.00
2019-03-10T09:40:49.347Z,100.00
2019-03-10T09:43:50.823Z,100.00
2019-03-10T09:46:40.274Z,100.00
2019-03-10T09:49:28.227Z,100.00
2019-03-10T09:52:17.704Z,100.00
2019-03-10T10:04:19.765Z,100.00
2019-03-10T10:11:07.650Z,100.00
2019-03-10T10:16:40.007Z,100.00
2019-03-10T10:19:27.002Z,100.00
2019-03-10T10:22:14.027Z,100.00
2019-03-10T10:25:06.548Z,100.00
2019-03-10T10:27:58.859Z,100.00
2019-03-10T10:30:45.583Z,100.00
2019-03-10T10:33:21.657Z,100.00
2019-03-10T10:36:30.120Z,100.00
2019-03-10T10:39:36.216Z,100.00
2019-03-10T10:42:38.937Z,100.00
2019-03-10T10:45:31.612Z,100.00
2019-03-10T10:48:20.120Z,100.00
2019-03-10T10:51:15.836Z,100.00
2019-03-10T10:54:08.333Z,98.55
2019-03-10T10:56:56.591Z,97.79
2019-03-10T10:59:46.733Z,98.22
2019-03-10T11:02:48.032Z,97.43
2019-03-10T11:05:50.597Z,97.99
2019-03-10T11:08:42.535Z,98.15
2019-03-10T11:11:30.859Z,99.08
2019-03-10T11:14:18.929Z,99.54
2019-03-10T11:17:09.861Z,99.27
2019-03-10T11:19:57.768Z,100.00
2019-03-10T11:22:56.378Z,100.00
2019-03-10T11:25:42.025Z,97.73
2019-03-10T11:28:30.026Z,96.54
2019-03-10T11:31:23.740Z,96.88
2019-03-10T11:34:13.197Z,96.93
2019-03-10T11:37:08.601Z,96.70
2019-03-10T11:40:01.469Z,94.06
2019-03-10T11:43:03.099Z,95.18
2019-03-10T11:45:52.580Z,94.35
2019-03-10T11:48:42.020Z,92.32
2019-03-10T11:51:37.715Z,91.33
2019-03-10T11:54:17.314Z,91.86
2019-03-10T11:57:25.499Z,91.39
2019-03-10T12:00:20.315Z,91.39
2019-03-10T12:03:02.015Z,89.50
2019-03-10T12:05:38.319Z,90.34
2019-03-10T12:08:18.267Z,91.00
2019-03-10T12:10:48.850Z,90.22
2019-03-10T12:13:19.775Z,88.64
2019-03-10T12:15:50.350Z,87.41
2019-03-10T12:18:21.065Z,87.05
2019-03-10T12:20:51.824Z,85.28
2019-03-10T12:23:22.424Z,85.59
2019-03-10T12:25:54.076Z,84.27
2019-03-10T12:28:24.713Z,84.10
2019-03-10T12:30:55.227Z,82.78
2019-03-10T12:33:27.348Z,82.04
2019-03-10T12:35:58.013Z,82.54
2019-03-10T12:38:28.679Z,80.91
2019-03-10T12:40:59.403Z,82.71
2019-03-10T12:43:30.008Z,80.12
2019-03-10T12:46:00.561Z,79.90
2019-03-10T12:48:31.248Z,78.29
2019-03-10T12:51:01.872Z,77.32
2019-03-10T12:53:32.468Z,77.43
2019-03-10T12:56:03.028Z,75.46
2019-03-10T12:58:34.614Z,72.33
2019-03-10T13:01:06.520Z,71.52
2019-03-10T13:03:37.559Z,70.61
2019-03-10T13:06:08.330Z,70.10
2019-03-10T13:08:41.820Z,69.51
2019-03-10T13:11:13.351Z,70.16
2019-03-10T13:13:44.046Z,68.94
2019-03-10T13:16:14.828Z,66.01
2019-03-10T13:18:45.454Z,66.26
2019-03-10T13:21:18.320Z,64.14
2019-03-10T13:23:48.980Z,62.77
2019-03-10T13:26:19.559Z,63.09
2019-03-10T13:28:50.199Z,60.22
2019-03-10T13:31:20.731Z,61.00
2019-03-10T13:33:51.399Z,58.94
2019-03-10T13:36:22.025Z,57.97
2019-03-10T13:38:52.553Z,56.74
2019-03-10T13:41:27.037Z,58.56
2019-03-10T13:43:57.579Z,56.49
2019-03-10T13:46:28.251Z,56.89
2019-03-10T13:48:58.793Z,57.00
2019-03-10T13:51:32.429Z,57.98
2019-03-10T13:54:02.977Z,57.03
2019-03-10T13:56:36.004Z,57.15
2019-03-10T13:59:06.537Z,58.31
2019-03-10T14:01:37.213Z,58.19
2019-03-10T14:04:07.844Z,58.85
2019-03-10T14:06:38.467Z,59.11
2019-03-10T14:09:10.382Z,58.90
2019-03-10T14:11:41.041Z,57.56
2019-03-10T14:14:11.567Z,55.29
2019-03-10T14:16:42.207Z,54.67
2019-03-10T14:19:12.729Z,54.89
2019-03-10T14:21:43.369Z,53.28
2019-03-10T14:24:15.367Z,53.26
2019-03-10T14:26:45.949Z,51.38
2019-03-10T14:29:16.519Z,50.34
2019-03-10T14:31:49.962Z,52.41
2019-03-10T14:34:20.544Z,51.93
2019-03-10T14:36:51.422Z,52.81
2019-03-10T14:39:21.982Z,52.37
2019-03-10T14:41:52.674Z,53.17
2019-03-10T14:44:26.146Z,53.83
2019-03-10T14:46:56.741Z,53.19
2019-03-10T14:49:27.327Z,52.44
2019-03-10T14:51:57.955Z,50.95
2019-03-10T14:54:28.674Z,50.04
2019-03-10T14:56:59.272Z,48.57
2019-03-10T14:59:29.949Z,47.76
2019-03-10T15:02:01.528Z,47.16
2019-03-10T15:04:32.117Z,47.86
2019-03-10T15:07:03.337Z,47.15
2019-03-10T15:09:34.035Z,48.29
2019-03-10T15:12:04.692Z,47.27
2019-03-10T15:14:35.226Z,46.61
2019-03-10T15:17:05.863Z,45.90
2019-03-10T15:19:37.556Z,46.40
2019-03-10T15:22:08.314Z,44.57
2019-03-10T15:24:38.918Z,44.78
2019-03-10T15:27:09.548Z,45.20
2019-03-10T15:29:40.113Z,45.52
2019-03-10T15:32:10.764Z,45.21
2019-03-10T15:34:41.312Z,46.50
2019-03-10T15:37:11.943Z,46.60
2019-03-10T15:39:44.245Z,45.88
2019-03-10T15:42:18.763Z,45.61
2019-03-10T15:44:52.122Z,46.95
2019-03-10T15:47:22.747Z,47.11
2019-03-10T15:49:53.349Z,47.48
2019-03-10T15:52:23.994Z,47.71
2019-03-10T15:54:57.489Z,48.95
2019-03-10T15:57:28.113Z,50.18
2019-03-10T15:59:58.678Z,50.26
2019-03-10T16:02:29.287Z,50.14
2019-03-10T16:04:59.962Z,51.31
2019-03-10T16:07:30.563Z,51.22
2019-03-10T16:10:01.161Z,49.66
2019-03-10T16:12:31.867Z,49.29
2019-03-10T16:15:02.421Z,49.35
2019-03-10T16:17:33.123Z,50.62
2019-03-10T16:20:04.201Z,50.26
2019-03-10T16:22:34.997Z,52.88
2019-03-10T16:25:05.982Z,53.52
2019-03-10T16:27:36.642Z,54.67
2019-03-10T16:30:11.251Z,58.21
2019-03-10T16:32:41.885Z,60.79
2019-03-10T16:35:12.477Z,60.35
2019-03-10T16:37:43.126Z,59.81
2019-03-10T16:40:15.058Z,60.34
2019-03-10T16:42:46.019Z,60.80
2019-03-10T16:45:20.879Z,60.73
2019-03-10T16:47:51.598Z,61.79
2019-03-10T16:50:24.554Z,61.84
2019-03-10T16:52:55.180Z,62.63
2019-03-10T16:55:25.779Z,63.10
2019-03-10T16:57:56.407Z,62.75
2019-03-10T17:00:27.059Z,63.72
2019-03-10T17:02:57.637Z,64.46
2019-03-10T17:05:29.772Z,64.54
2019-03-10T17:08:00.374Z,65.22
2019-03-10T17:10:30.970Z,65.10
2019-03-10T17:13:01.560Z,64.72
2019-03-10T17:15:32.254Z,65.13
2019-03-10T17:18:02.934Z,65.46
2019-03-10T17:20:33.504Z,65.08
2019-03-10T17:23:04.169Z,65.26
2019-03-10T17:25:34.736Z,64.87
2019-03-10T17:28:05.496Z,64.93
2019-03-10T17:30:36.164Z,65.11
2019-03-10T17:33:06.772Z,65.37
2019-03-10T17:35:37.412Z,64.74
2019-03-10T17:38:08.027Z,65.38
2019-03-10T17:40:41.768Z,65.28
2019-03-10T17:43:12.436Z,65.97
2019-03-10T17:45:43.003Z,66.28
2019-03-10T17:48:14.939Z,66.50
2019-03-10T17:50:45.504Z,66.72
2019-03-10T17:53:17.751Z,66.98
2019-03-10T17:55:48.364Z,67.61
2019-03-10T17:58:19.008Z,66.20
2019-03-10T18:00:49.601Z,66.03
2019-03-10T18:03:20.213Z,66.23
2019-03-10T18:05:51.776Z,66.26
2019-03-10T18:08:22.409Z,66.02
2019-03-10T18:10:53.522Z,66.09
2019-03-10T18:13:24.161Z,65.50
2019-03-10T18:15:54.711Z,65.58
2019-03-10T18:18:25.387Z,65.40
2019-03-10T18:20:55.985Z,64.38
2019-03-10T18:23:26.581Z,63.16
2019-03-10T18:25:57.165Z,62.95
2019-03-10T18:28:30.213Z,62.69
2019-03-10T18:31:02.053Z,62.00
2019-03-10T18:33:32.668Z,61.56
2019-03-10T18:36:03.292Z,61.92
2019-03-10T18:38:34.156Z,61.87
2019-03-10T18:41:04.778Z,63.11
2019-03-10T18:43:40.213Z,65.92
2019-03-10T18:46:10.934Z,71.62
2019-03-10T18:48:42.086Z,78.93
2019-03-10T18:51:15.819Z,81.48
2019-03-10T18:53:46.725Z,82.47
2019-03-10T18:56:17.997Z,83.73
2019-03-10T18:58:48.684Z,84.91
2019-03-10T19:01:19.410Z,84.99
2019-03-10T19:03:50.047Z,86.30
2019-03-10T19:06:20.627Z,86.21
2019-03-10T19:08:51.250Z,86.20
2019-03-10T19:11:21.901Z,86.83
2019-03-10T19:13:54.603Z,87.80
2019-03-10T19:16:25.171Z,88.10
2019-03-10T19:19:05.086Z,88.34
2019-03-10T19:21:35.685Z,88.83
2019-03-10T19:24:06.305Z,88.96
2019-03-10T19:26:36.934Z,89.15
2019-03-10T19:29:07.609Z,88.34
2019-03-10T19:31:38.155Z,88.17
2019-03-10T19:34:09.828Z,89.49
2019-03-10T19:36:43.881Z,90.72
2019-03-10T19:39:14.572Z,91.33
2019-03-10T19:41:45.150Z,91.75
2019-03-10T19:44:15.950Z,92.66
2019-03-10T19:46:46.637Z,92.61
2019-03-10T19:49:17.417Z,93.06
2019-03-10T19:51:53.883Z,93.06
2019-03-10T19:54:24.656Z,93.38
2019-03-10T19:56:55.261Z,93.20
2019-03-10T19:59:25.898Z,93.24
2019-03-10T20:01:57.167Z,91.24
2019-03-10T20:04:27.797Z,89.52
2019-03-10T20:06:58.408Z,88.71
2019-03-10T20:09:29.040Z,86.94
2019-03-10T20:11:59.617Z,82.53
2019-03-10T20:14:30.217Z,81.99
2019-03-10T20:17:00.786Z,84.67
2019-03-10T20:19:31.392Z,86.65
2019-03-10T20:24:37.338Z,87.88
2019-03-10T20:27:08.073Z,87.30
2019-03-10T20:29:38.729Z,88.42
2019-03-10T20:32:13.894Z,87.83
2019-03-10T20:34:43.301Z,85.25
2019-03-10T20:37:13.908Z,81.97
2019-03-10T20:39:46.863Z,81.88
2019-03-10T20:42:20.542Z,82.40
2019-03-10T20:44:51.187Z,83.37
2019-03-10T20:47:24.523Z,82.95
2019-03-10T20:49:54.928Z,81.31
2019-03-10T20:52:25.623Z,77.93
2019-03-10T20:58:44.008Z,78.55
2019-03-10T21:05:14.190Z,79.83
2019-03-10T21:11:31.998Z,76.03
2019-03-10T21:17:49.590Z,74.08
2019-03-10T21:27:55.637Z,75.51
2019-03-10T21:34:15.209Z,73.98
2019-03-10T21:40:51.516Z,73.98
2019-03-10T21:47:09.797Z,73.15
2019-03-10T21:53:28.032Z,73.91
2019-03-10T21:59:53.542Z,75.05
2019-03-10T22:06:26.257Z,74.61
2019-03-10T22:12:56.758Z,74.48
2019-03-10T22:19:27.025Z,73.30
2019-03-10T22:22:51.902Z,73.39
2019-03-10T22:29:12.948Z,71.06
2019-03-10T22:35:34.386Z,71.33
2019-03-10T22:41:28.042Z,73.55
2019-03-10T22:47:45.974Z,73.39
2019-03-10T22:54:04.188Z,73.06
2019-03-10T23:00:26.631Z,73.55
2019-03-10T23:06:44.324Z,73.54
2019-03-10T23:13:02.780Z,73.29
2019-03-10T23:19:20.640Z,73.17
2019-03-10T23:29:26.005Z,74.07
2019-03-10T23:35:56.462Z,73.71
2019-03-10T23:41:50.657Z,76.07
2019-03-10T23:48:20.722Z,74.75
2019-03-10T23:54:51.294Z,75.22
